Time;durP1;ratioP1;P1;durP2;ratioP2;P2;SDS_P1;SDS_P2;PMS_P1;PMS_P2;Temp;Humidity;BMP_temperature;BMP_pressure;BME280_temperature;BME280_humidity;BME280_pressure;Samples;Min_cycle;Max_cycle;Signal;HPM_P1;HPM_P2
2022/04/26 03:37:33;;;;;;;5.57;2.47;;;11.60;99.90;;;;;;4974103;28;20499;-67
2022/04/26 03:39:59;;;;;;;8.32;2.85;;;11.60;99.90;;;;;;4956937;28;20126;-67
2022/04/26 03:42:25;;;;;;;2.42;1.95;;;11.60;99.90;;;;;;4974264;28;20066;-67
2022/04/26 03:44:51;;;;;;;7.68;2.85;;;11.70;99.90;;;;;;4956824;28;20027;-67
2022/04/26 03:47:17;;;;;;;9.55;2.83;;;11.60;99.90;;;;;;4956812;28;20118;-68
2022/04/26 03:49:43;;;;;;;6.15;2.42;;;11.60;99.90;;;;;;4974219;28;20033;-68
2022/04/26 03:52:09;;;;;;;3.92;2.10;;;11.60;99.90;;;;;;4956729;28;20081;-68
2022/04/26 03:54:35;;;;;;;4.43;2.22;;;11.50;99.90;;;;;;4977967;28;20031;-68
2022/04/26 03:57:00;;;;;;;5.47;2.25;;;11.50;99.90;;;;;;4977840;28;20452;-67
2022/04/26 03:59:26;;;;;;;3.92;2.60;;;11.50;99.90;;;;;;4978378;28;20118;-68
2022/04/26 04:01:53;;;;;;;18.90;2.95;;;11.40;99.90;;;;;;4978015;28;20066;-68
2022/04/26 04:04:19;;;;;;;6.43;2.17;;;11.30;99.90;;;;;;4977966;28;20468;-68
2022/04/26 04:06:45;;;;;;;8.20;2.40;;;11.30;99.90;;;;;;4977919;28;20041;-67
2022/04/26 04:09:10;;;;;;;8.10;2.70;;;11.30;99.90;;;;;;4960234;28;20121;-68
2022/04/26 04:11:36;;;;;;;7.13;2.92;;;11.20;99.90;;;;;;4977739;28;20039;-68
2022/04/26 04:14:02;;;;;;;2.92;2.25;;;11.20;99.90;;;;;;4977826;28;20039;-67
2022/04/26 04:16:28;;;;;;;5.82;2.78;;;11.30;99.90;;;;;;4977454;28;20046;-67
2022/04/26 04:21:38;;;;;;;15.30;3.15;;;11.50;99.90;;;;;;4977498;28;20446;-68
2022/04/26 04:24:05;;;;;;;9.45;3.20;;;11.60;99.90;;;;;;4960221;28;20031;-68
2022/04/26 04:26:30;;;;;;;7.50;2.85;;;11.60;99.90;;;;;;4977559;28;20093;-68
2022/04/26 04:28:56;;;;;;;8.35;2.67;;;11.70;99.90;;;;;;4977554;28;20039;-68
2022/04/26 04:31:22;;;;;;;7.32;3.13;;;11.70;99.90;;;;;;4977165;28;20507;-68
2022/04/26 04:33:48;;;;;;;2.97;2.38;;;11.80;99.90;;;;;;4959825;28;20062;-68
2022/04/26 04:36:14;;;;;;;3.50;2.03;;;11.90;99.90;;;;;;4977392;28;20034;-66
2022/04/26 04:38:40;;;;;;;7.90;3.30;;;11.90;99.90;;;;;;4977383;28;20085;-68
2022/04/26 04:41:07;;;;;;;5.13;2.05;;;12.00;99.90;;;;;;4977398;28;20030;-67
2022/04/26 04:43:34;;;;;;;6.70;2.70;;;12.10;99.90;;;;;;4959929;28;20428;-67
2022/04/26 04:46:00;;;;;;;6.70;2.47;;;12.20;99.90;;;;;;4977283;28;20023;-68
2022/04/26 04:48:26;;;;;;;7.70;2.63;;;12.20;99.90;;;;;;4959800;28;20030;-68
2022/04/26 04:50:52;;;;;;;4.68;2.63;;;12.20;99.90;;;;;;4977159;28;20042;-67
2022/04/26 04:53:19;;;;;;;13.75;3.75;;;12.30;99.90;;;;;;4959984;28;20038;-67
2022/04/26 04:55:45;;;;;;;11.68;3.08;;;12.30;99.90;;;;;;4959763;28;20089;-67
2022/04/26 04:58:11;;;;;;;9.75;3.33;;;12.40;99.90;;;;;;4959311;28;20476;-65
2022/04/26 05:00:37;;;;;;;18.48;3.20;;;12.40;99.90;;;;;;4977231;28;20050;-67
2022/04/26 05:03:03;;;;;;;8.90;2.95;;;12.50;99.90;;;;;;4976919;28;20027;-67
2022/04/26 05:05:29;;;;;;;6.55;3.00;;;12.50;99.90;;;;;;4976665;28;20112;-67
2022/04/26 05:07:55;;;;;;;4.35;2.47;;;12.70;99.90;;;;;;4976847;28;20040;-67
2022/04/26 05:10:20;;;;;;;3.78;3.05;;;12.80;99.90;;;;;;4976786;28;20133;-67
2022/04/26 05:12:46;;;;;;;11.95;3.25;;;12.90;99.90;;;;;;4976484;28;20066;-69
2022/04/26 05:15:12;;;;;;;13.57;3.65;;;13.00;99.90;;;;;;4976348;28;20027;-65
2022/04/26 05:17:38;;;;;;;11.43;3.83;;;13.00;99.90;;;;;;4959243;28;20121;-65
2022/04/26 05:20:05;;;;;;;7.35;2.58;;;13.10;99.90;;;;;;4976669;28;20069;-67
2022/04/26 05:22:31;;;;;;;3.40;3.00;;;13.10;99.90;;;;;;4959134;28;20070;-66
2022/04/26 05:24:57;;;;;;;6.95;3.05;;;13.10;99.90;;;;;;4959034;28;20057;-66
2022/04/26 05:27:24;;;;;;;7.05;3.90;;;13.10;99.90;;;;;;4959016;28;20039;-66
2022/04/26 05:29:50;;;;;;;12.55;4.38;;;13.20;99.90;;;;;;4976130;28;20490;-66
2022/04/26 05:32:23;;;;;;;10.63;4.75;;;13.30;99.90;;;;;;4958314;28;20142;-66
2022/04/26 05:34:55;;;;;;;5.05;3.78;;;13.30;99.90;;;;;;4976260;28;20041;-67
2022/04/26 05:37:21;;;;;;;9.32;3.85;;;13.20;99.90;;;;;;4976292;28;20038;-66
2022/04/26 05:39:47;;;;;;;3.95;2.92;;;13.20;99.90;;;;;;4958794;28;20026;-66
2022/04/26 05:42:13;;;;;;;5.95;4.40;;;13.20;99.90;;;;;;4958776;28;20431;-65
2022/04/26 05:44:39;;;;;;;7.53;4.10;;;13.30;99.90;;;;;;4958778;28;20117;-66
2022/04/26 05:47:06;;;;;;;5.63;3.88;;;13.40;99.90;;;;;;4976099;28;20039;-67
2022/04/26 05:49:32;;;;;;;8.00;3.72;;;13.40;99.90;;;;;;4975976;28;20461;-66
2022/04/26 05:51:58;;;;;;;11.23;6.72;;;13.30;99.90;;;;;;4975943;28;20034;-66
2022/04/26 05:54:24;;;;;;;32.53;16.92;;;13.30;99.90;;;;;;4975358;28;20042;-66
2022/04/26 05:56:52;;;;;;;9.98;5.07;;;13.40;99.90;;;;;;4975550;28;20502;-67
2022/04/26 05:59:18;;;;;;;16.58;4.82;;;13.50;99.90;;;;;;4958474;28;20062;-66
2022/04/26 06:01:44;;;;;;;11.25;5.70;;;13.50;99.90;;;;;;4975856;28;20033;-66
2022/04/26 06:04:10;;;;;;;7.30;4.60;;;13.60;99.90;;;;;;4958459;28;20117;-66
2022/04/26 06:06:36;;;;;;;5.13;3.70;;;13.70;99.90;;;;;;4958281;28;20031;-66
2022/04/26 06:09:03;;;;;;;6.00;3.53;;;13.70;99.90;;;;;;4974332;28;20427;-66
2022/04/26 06:11:29;;;;;;;9.95;5.50;;;13.80;99.90;;;;;;4974197;28;20034;-65
2022/04/26 06:13:54;;;;;;;8.38;4.32;;;13.90;99.90;;;;;;4975631;28;20097;-66
2022/04/26 06:16:20;;;;;;;9.27;3.92;;;14.00;99.90;;;;;;4974995;28;20478;-66
2022/04/26 06:18:46;;;;;;;4.32;3.88;;;14.10;99.90;;;;;;4958068;28;20612;-65
2022/04/26 06:21:12;;;;;;;9.98;4.35;;;14.10;99.90;;;;;;4975567;28;20030;-65
2022/04/26 06:23:38;;;;;;;9.98;6.55;;;14.20;99.90;;;;;;4975395;28;20109;-65
2022/04/26 06:26:04;;;;;;;24.25;13.48;;;14.20;99.90;;;;;;4975408;28;20077;-65
2022/04/26 06:28:30;;;;;;;11.75;5.72;;;14.30;99.90;;;;;;4975317;28;20446;-65
2022/04/26 06:30:56;;;;;;;6.60;4.30;;;14.40;99.90;;;;;;4974939;28;20189;-66
2022/04/26 06:33:22;;;;;;;6.97;4.03;;;14.50;99.90;;;;;;4957871;28;20395;-67
2022/04/26 06:35:48;;;;;;;7.15;3.72;;;14.50;99.90;;;;;;4975223;28;20038;-66
2022/04/26 06:38:16;;;;;;;6.63;3.92;;;14.60;99.90;;;;;;4970490;28;20109;-66
2022/04/26 06:40:42;;;;;;;7.00;3.92;;;14.80;99.90;;;;;;4976520;28;20097;-69
2022/04/26 06:43:10;;;;;;;4.10;3.70;;;14.70;99.90;;;;;;4974960;28;20027;-71
2022/04/26 06:45:36;;;;;;;5.85;3.95;;;14.90;99.90;;;;;;4957498;28;20426;-69
2022/04/26 06:48:06;;;;;;;8.43;3.83;;;15.00;99.90;;;;;;4975198;28;20027;-71
2022/04/26 06:50:32;;;;;;;5.10;3.70;;;15.10;99.90;;;;;;4975032;28;20433;-69
2022/04/26 06:52:57;;;;;;;6.03;3.50;;;15.30;99.90;;;;;;4974807;28;20117;-70
2022/04/26 06:55:23;;;;;;;10.85;4.25;;;15.40;99.90;;;;;;4974945;28;20031;-72
2022/04/26 06:57:52;;;;;;;7.18;4.03;;;15.50;99.90;;;;;;4957365;28;20054;-70
2022/04/26 07:00:18;;;;;;;5.82;3.85;;;15.60;99.90;;;;;;4957200;28;20423;-72
2022/04/26 07:02:45;;;;;;;7.70;3.80;;;15.60;99.90;;;;;;4974710;28;20031;-70
2022/04/26 07:05:11;;;;;;;5.55;4.35;;;15.70;99.90;;;;;;4974571;28;20026;-69
2022/04/26 07:07:40;;;;;;;4.72;3.88;;;15.80;99.90;;;;;;4974470;28;20117;-70
2022/04/26 07:10:07;;;;;;;5.50;4.30;;;15.80;99.90;;;;;;4974353;28;20023;-70
2022/04/26 07:12:33;;;;;;;6.35;3.70;;;15.90;99.90;;;;;;4974698;28;20094;-69
2022/04/26 07:14:59;;;;;;;5.68;4.03;;;16.00;99.90;;;;;;4974467;28;20034;-71
2022/04/26 07:17:25;;;;;;;8.40;4.10;;;16.10;99.90;;;;;;4956903;28;20034;-70
2022/04/26 07:19:52;;;;;;;5.15;3.45;;;16.20;99.90;;;;;;4974431;28;20027;-68
2022/04/26 07:22:17;;;;;;;7.05;3.80;;;16.30;99.90;;;;;;4974333;28;20035;-66
2022/04/26 07:24:46;;;;;;;13.00;4.10;;;16.40;99.90;;;;;;4974299;28;20058;-70
2022/04/26 07:27:12;;;;;;;9.55;5.28;;;16.50;99.90;;;;;;4973259;28;20440;-68
2022/04/26 07:29:43;;;;;;;4.18;3.05;;;16.60;99.90;;;;;;4956646;28;20074;-68
2022/04/26 07:32:10;;;;;;;5.22;3.30;;;16.80;99.90;;;;;;4974316;28;20054;-69
2022/04/26 07:34:36;;;;;;;5.90;3.88;;;16.90;99.90;;;;;;4956648;28;20035;-66
2022/04/26 07:37:02;;;;;;;5.03;3.58;;;17.10;99.90;;;;;;4974024;28;20472;-70
2022/04/26 07:39:35;;;;;;;4.55;3.40;;;17.20;99.90;;;;;;4973697;28;20408;-69
2022/04/26 07:42:03;;;;;;;11.18;3.33;;;17.30;99.90;;;;;;4973177;28;20023;-67
2022/04/26 07:44:29;;;;;;;9.88;4.30;;;17.50;99.90;;;;;;4973920;28;20460;-68
2022/04/26 07:46:55;;;;;;;4.03;3.58;;;17.60;99.90;;;;;;4956613;28;20034;-68
2022/04/26 07:49:26;;;;;;;6.45;3.55;;;17.70;99.90;;;;;;4973772;28;20034;-68
2022/04/26 07:51:53;;;;;;;5.20;3.50;;;17.80;99.90;;;;;;4973315;28;20428;-67
2022/04/26 07:54:19;;;;;;;4.85;3.33;;;17.90;99.90;;;;;;4974044;28;20456;-68
2022/04/26 07:56:45;;;;;;;5.05;3.25;;;18.10;99.90;;;;;;4973891;28;20034;-67
2022/04/26 07:59:12;;;;;;;4.63;3.30;;;18.20;99.90;;;;;;4973843;28;20023;-68
2022/04/26 08:01:38;;;;;;;5.13;2.83;;;18.30;99.90;;;;;;4973917;28;20063;-67
2022/04/26 08:04:04;;;;;;;27.17;3.88;;;18.30;99.90;;;;;;4973765;28;20030;-67
2022/04/26 08:06:30;;;;;;;3.72;2.78;;;18.50;99.90;;;;;;4956435;28;20460;-68
2022/04/26 08:08:58;;;;;;;4.00;2.92;;;18.60;99.90;;;;;;4973491;28;20055;-67
2022/04/26 08:11:24;;;;;;;3.80;3.03;;;18.70;99.90;;;;;;4972708;28;20034;-67
2022/04/26 08:13:50;;;;;;;5.25;3.00;;;18.80;99.90;;;;;;4972234;28;20027;-67
2022/04/26 08:16:17;;;;;;;7.97;2.47;;;19.00;99.90;;;;;;4972089;28;20035;-68
2022/04/26 08:18:43;;;;;;;3.33;2.92;;;19.20;99.90;;;;;;4971903;28;20031;-68
2022/04/26 08:21:13;;;;;;;5.10;2.78;;;19.30;99.90;;;;;;4973331;28;20369;-68
2022/04/26 08:27:22;;;;;;;5.68;3.25;;;19.40;99.90;;;;;;4956108;28;20078;-67
2022/04/26 08:29:14;;;;;;;4.70;2.30;;;19.70;99.90;;;;;;4973518;28;20054;-67
2022/04/26 08:31:40;;;;;;;4.82;1.85;;;19.80;99.90;;;;;;4973104;28;20518;-68
2022/04/26 08:34:06;;;;;;;3.80;2.17;;;20.00;99.90;;;;;;4973387;28;20416;-67
2022/04/26 08:36:32;;;;;;;2.92;2.13;;;20.10;99.90;;;;;;4973495;28;20080;-67
2022/04/26 08:38:59;;;;;;;5.35;2.30;;;20.20;99.90;;;;;;4974603;28;20399;-68
2022/04/26 08:41:24;;;;;;;3.90;2.67;;;20.20;99.90;;;;;;4977056;28;20022;-68
2022/04/26 08:43:50;;;;;;;5.03;2.50;;;20.30;99.90;;;;;;4977290;28;20027;-68
2022/04/26 08:46:16;;;;;;;2.70;2.25;;;20.50;99.90;;;;;;4977227;28;20035;-68
2022/04/26 08:51:28;;;;;;;4.20;1.50;;;20.80;99.90;;;;;;4976800;28;20112;-67
2022/04/26 08:53:54;;;;;;;3.40;1.73;;;21.00;99.90;;;;;;4977155;28;20026;-67
2022/04/26 08:56:20;;;;;;;3.80;1.77;;;21.00;99.80;;;;;;4976942;28;20507;-65
2022/04/26 08:58:47;;;;;;;2.88;2.10;;;21.00;99.90;;;;;;4976886;28;20023;-68
2022/04/26 09:01:22;;;;;;;4.13;1.63;;;21.00;99.90;;;;;;4976821;28;20034;-66
2022/04/26 09:03:54;;;;;;;4.07;2.70;;;21.20;98.80;;;;;;4976884;28;20034;-67
2022/04/26 09:06:39;;;;;;;4.97;2.33;;;21.30;99.90;;;;;;4976998;28;20022;-67
2022/04/26 09:09:21;;;;;;;2.30;1.55;;;21.20;98.90;;;;;;4976548;28;20588;-67
2022/04/26 09:11:48;;;;;;;2.83;1.50;;;21.40;99.60;;;;;;4959353;28;20031;-66
2022/04/26 09:14:35;;;;;;;2.95;1.30;;;21.60;97.40;;;;;;4976565;28;20065;-67
2022/04/26 09:17:09;;;;;;;2.45;1.30;;;21.70;95.90;;;;;;4976715;28;20460;-66
2022/04/26 09:19:48;;;;;;;2.33;1.15;;;21.60;94.60;;;;;;4976594;28;20035;-66
2022/04/26 09:22:19;;;;;;;2.30;1.67;;;21.80;93.90;;;;;;4976555;28;20038;-66
2022/04/26 09:25:04;;;;;;;2.53;1.30;;;21.90;95.30;;;;;;4976480;28;20027;-66
2022/04/26 09:27:32;;;;;;;1.40;0.90;;;22.00;95.60;;;;;;4976708;28;20118;-67
2022/04/26 09:29:57;;;;;;;1.15;1.05;;;22.10;95.60;;;;;;4976014;28;20384;-67
2022/04/26 09:32:23;;;;;;;0.50;0.50;;;22.10;93.60;;;;;;4975849;28;20051;-68
2022/04/26 09:34:49;;;;;;;1.40;0.80;;;22.30;90.40;;;;;;4976350;28;20096;-67
2022/04/26 09:37:16;;;;;;;2.17;1.10;;;22.50;92.70;;;;;;4976240;28;20518;-69
2022/04/26 09:40:00;;;;;;;1.42;1.00;;;22.60;92.80;;;;;;4976183;28;20026;-69
2022/04/26 09:42:33;;;;;;;13.85;4.20;;;23.00;93.60;;;;;;4976159;28;20054;-67
2022/04/26 09:45:10;;;;;;;2.42;1.10;;;23.10;91.50;;;;;;4976041;28;20031;-67
2022/04/26 09:47:41;;;;;;;2.10;1.38;;;23.00;88.90;;;;;;4976048;28;20038;-67
2022/04/26 09:50:12;;;;;;;1.52;0.90;;;23.00;90.20;;;;;;4975146;28;20388;-67
2022/04/26 09:52:38;;;;;;;1.25;0.70;;;23.20;87.70;;;;;;4975654;28;20559;-67
2022/04/26 09:55:05;;;;;;;1.15;0.88;;;23.40;88.50;;;;;;4975731;28;20030;-67
2022/04/26 09:57:36;;;;;;;2.85;1.52;;;23.30;85.50;;;;;;4958359;28;20035;-69
2022/04/26 10:00:05;;;;;;;4.63;1.58;;;23.40;85.30;;;;;;4975960;28;20026;-67
2022/04/26 10:02:32;;;;;;;2.35;1.20;;;23.70;89.50;;;;;;4975668;28;20123;-67
2022/04/26 10:05:06;;;;;;;0.77;0.77;;;24.00;84.50;;;;;;4975800;28;20026;-67
2022/04/26 10:07:40;;;;;;;3.05;1.33;;;24.00;88.90;;;;;;4977127;28;20589;-68
2022/04/26 10:10:06;;;;;;;2.58;1.20;;;24.10;84.30;;;;;;4977333;28;20032;-66
2022/04/26 10:12:33;;;;;;;13.10;10.82;;;23.70;85.50;;;;;;4994981;28;20034;-70
2022/04/26 10:15:01;;;;;;;1.30;1.20;;;23.20;85.30;;;;;;4994917;28;20023;-66
2022/04/26 10:17:28;;;;;;;5.18;1.20;;;23.40;88.70;;;;;;4994880;28;20069;-66
2022/04/26 10:19:54;;;;;;;5.25;0.95;;;23.90;86.80;;;;;;4994801;28;20096;-68
2022/04/26 10:23:06;;;;;;;1.20;0.98;;;24.50;83.80;;;;;;4994818;28;20464;-68
2022/04/26 10:25:31;;;;;;;0.60;0.60;;;24.00;80.20;;;;;;4990813;28;20558;-65
2022/04/26 10:28:16;;;;;;;0.85;0.82;;;23.30;81.30;;;;;;4977249;28;20069;-67
2022/04/26 10:30:52;;;;;;;4.80;0.88;;;22.80;80.80;;;;;;4976644;28;20066;-67
2022/04/26 10:33:40;;;;;;;0.65;0.57;;;;;;;;;;4994570;28;20483;-67
2022/04/26 10:36:26;;;;;;;7.57;2.25;;;22.50;82.30;;;;;;4994502;28;20019;-65
2022/04/26 10:39:07;;;;;;;3.03;1.40;;;22.00;84.60;;;;;;4984286;28;20054;-66
2022/04/26 10:41:54;;;;;;;2.03;1.10;;;23.80;82.00;;;;;;4994430;28;20092;-66
2022/04/26 10:44:21;;;;;;;5.63;1.45;;;25.30;76.30;;;;;;4976639;28;20034;-66
2022/04/26 10:47:08;;;;;;;2.88;1.00;;;27.10;74.20;;;;;;4976251;28;20113;-66
2022/04/26 10:49:35;;;;;;;3.20;1.23;;;29.30;66.70;;;;;;4971526;28;20767;-67
2022/04/26 10:52:25;;;;;;;8.23;1.02;;;30.00;64.50;;;;;;4993776;28;20035;-68
2022/04/26 10:57:21;;;;;;;3.17;0.80;;;31.80;59.60;;;;;;4994075;28;20066;-68
2022/04/26 11:00:08;;;;;;;9.70;1.10;;;;;;;;;;4976119;28;20064;-68
2022/04/26 11:02:39;;;;;;;1.20;0.70;;;31.40;57.30;;;;;;4975832;28;20022;-67
2022/04/26 11:05:17;;;;;;;2.45;2.25;;;29.90;60.00;;;;;;4994014;28;20057;-65
2022/04/26 11:07:46;;;;;;;7.00;1.17;;;29.20;60.00;;;;;;4993995;28;20026;-65
2022/04/26 11:10:15;;;;;;;3.45;0.90;;;29.40;60.80;;;;;;4993681;28;20031;-64
2022/04/26 11:12:41;;;;;;;1.45;1.10;;;29.30;62.00;;;;;;4993987;28;20149;-65
2022/04/26 11:15:20;;;;;;;1.35;0.98;;;;;;;;;;4988311;28;20031;-67
2022/04/26 11:17:48;;;;;;;17.15;1.38;;;31.70;58.00;;;;;;4973580;28;20038;-66
2022/04/26 11:20:17;;;;;;;3.17;0.75;;;31.80;59.40;;;;;;4974097;28;20023;-68
2022/04/26 11:27:59;;;;;;;7.50;1.67;;;32.90;55.30;;;;;;4956796;28;20035;-69
2022/04/26 11:28:32;;;;;;;0.88;0.70;;;34.50;54.60;;;;;;4973719;28;20033;-69
2022/04/26 11:30:59;;;;;;;0.93;0.80;;;35.00;52.90;;;;;;4973706;28;20088;-69
2022/04/26 11:33:25;;;;;;;5.20;0.77;;;35.40;52.00;;;;;;4974045;28;20030;-69
2022/04/26 11:35:59;;;;;;;1.27;0.68;;;35.50;52.70;;;;;;4973886;28;20031;-70
2022/04/26 11:38:26;;;;;;;1.70;1.10;;;35.80;51.10;;;;;;4955981;28;20551;-70
2022/04/26 11:40:54;;;;;;;8.80;2.05;;;;;;;;;;4973494;28;20387;-70
2022/04/26 11:43:23;;;;;;;0.85;0.73;;;33.60;50.00;;;;;;4973839;28;20110;-69
2022/04/26 11:45:51;;;;;;;2.10;0.80;;;34.70;51.60;;;;;;4956367;28;20062;-70
2022/04/26 11:48:29;;;;;;;0.85;0.60;;;34.30;50.80;;;;;;4973524;28;20050;-70
2022/04/26 11:50:57;;;;;;;4.78;1.42;;;33.60;50.20;;;;;;4973469;28;20066;-71
2022/04/26 11:53:25;;;;;;;1.85;0.63;;;33.20;52.30;;;;;;4956470;28;20027;-71
2022/04/26 11:56:00;;;;;;;1.58;1.00;;;33.50;49.00;;;;;;4974161;28;20078;-70
2022/04/26 11:58:40;;;;;;;4.57;0.90;;;34.40;49.10;;;;;;4973688;28;20023;-70
2022/04/26 12:01:11;;;;;;;8.25;1.13;;;35.80;49.60;;;;;;4973721;28;20568;-65
2022/04/26 12:03:56;;;;;;;1.85;0.80;;;;;;;;;;4956687;28;20375;-66
2022/04/26 12:06:32;;;;;;;0.82;0.52;;;36.60;47.20;;;;;;4973852;28;20031;-66
2022/04/26 12:08:59;;;;;;;4.15;1.17;;;;;;;;;;4956349;28;20031;-65
2022/04/26 12:11:26;;;;;;;1.60;0.80;;;;;;;;;;4973759;28;20096;-69
2022/04/26 12:13:59;;;;;;;1.65;1.00;;;;;;;;;;4974636;28;20029;-70
2022/04/26 12:16:26;;;;;;;5.82;1.52;;;36.50;48.10;;;;;;4977653;28;20025;-70
2022/04/26 12:18:57;;;;;;;1.63;1.00;;;36.00;54.30;;;;;;4959609;28;20118;-66
2022/04/26 12:21:26;;;;;;;3.25;0.85;;;36.40;46.50;;;;;;4975664;28;20030;-69
2022/04/26 12:24:11;;;;;;;2.63;0.80;;;;;;;;;;4977607;28;20042;-68
2022/04/26 12:26:37;;;;;;;1.75;0.88;;;;;;;;;;4977586;28;20015;-69
2022/04/26 12:29:13;;;;;;;3.20;0.82;;;37.40;54.50;;;;;;4977521;28;20062;-70
2022/04/26 12:31:47;;;;;;;2.97;0.85;;;35.50;46.60;;;;;;4987710;28;20086;-68
2022/04/26 12:34:30;;;;;;;1.38;0.70;;;36.20;46.70;;;;;;4996849;28;20113;-69
2022/04/26 12:37:03;;;;;;;1.67;0.70;;;36.60;46.20;;;;;;4996827;28;20505;-69
2022/04/26 12:39:41;;;;;;;2.00;0.80;;;37.50;46.10;;;;;;4974471;28;20030;-70
2022/04/26 12:42:17;;;;;;;1.58;0.98;;;38.30;46.60;;;;;;4987100;28;20467;-70
2022/04/26 12:45:03;;;;;;;1.70;1.60;;;38.70;44.60;;;;;;4996488;28;20050;-68
2022/04/26 12:50:36;;;;;;;4.03;1.65;;;38.80;44.90;;;;;;4995962;28;20101;-70
2022/04/26 12:53:08;;;;;;;3.42;1.38;;;38.00;44.10;;;;;;4996461;28;20053;-70
2022/04/26 12:55:35;;;;;;;1.58;0.90;;;37.30;43.60;;;;;;4978658;28;20034;-70
2022/04/26 12:58:15;;;;;;;4.47;1.77;;;38.60;44.20;;;;;;4996004;28;20038;-70
2022/04/26 13:00:44;;;;;;;5.53;1.58;;;39.30;45.00;;;;;;4996092;28;20045;-69
2022/04/26 13:03:13;;;;;;;2.58;0.93;;;40.30;43.80;;;;;;4996509;28;20168;-69
2022/04/26 13:05:40;;;;;;;5.13;0.90;;;41.00;42.20;;;;;;4996489;28;20034;-70
2022/04/26 13:08:07;;;;;;;14.02;2.95;;;41.70;42.40;;;;;;4978559;28;20467;-70
2022/04/26 13:10:33;;;;;;;3.80;1.90;;;42.40;41.80;;;;;;4994725;28;20031;-69
2022/04/26 13:12:59;;;;;;;0.82;0.77;;;42.80;63.20;;;;;;4996038;28;20471;-70
2022/04/26 13:15:27;;;;;;;2.33;0.80;;;42.20;40.70;;;;;;4978768;28;20030;-70
2022/04/26 13:17:53;;;;;;;5.88;0.75;;;40.90;40.10;;;;;;4996420;28;20022;-69
2022/04/26 13:20:19;;;;;;;3.53;1.80;;;41.40;41.70;;;;;;4995609;28;20073;-70
2022/04/26 13:22:45;;;;;;;0.82;0.68;;;41.30;42.30;;;;;;4978340;28;20460;-70
2022/04/26 13:25:11;;;;;;;4.65;2.50;;;41.90;40.60;;;;;;4995670;28;20033;-70
2022/04/26 13:27:38;;;;;;;3.88;1.20;;;41.00;41.30;;;;;;4995745;28;20129;-70
2022/04/26 13:30:07;;;;;;;2.05;1.08;;;42.10;41.60;;;;;;4995482;28;20022;-70
2022/04/26 13:32:33;;;;;;;4.90;3.40;;;39.50;41.10;;;;;;4995595;28;20145;-70
2022/04/26 13:34:59;;;;;;;3.42;1.20;;;36.40;42.90;;;;;;4995620;28;20113;-70
2022/04/26 13:37:26;;;;;;;3.22;1.65;;;37.90;45.80;;;;;;4995265;28;20073;-70
2022/04/26 13:39:54;;;;;;;1.75;1.17;;;39.00;44.00;;;;;;4995250;28;20061;-71
2022/04/26 13:42:23;;;;;;;6.00;3.08;;;39.90;42.30;;;;;;4995397;28;20037;-70
2022/04/26 13:44:52;;;;;;;1.83;1.00;;;40.30;41.50;;;;;;4995529;28;20027;-70
2022/04/26 13:47:18;;;;;;;1.33;0.77;;;40.50;41.00;;;;;;4995339;28;20045;-71
2022/04/26 13:49:44;;;;;;;4.28;2.00;;;39.90;41.20;;;;;;4977924;28;20037;-70
2022/04/26 13:52:10;;;;;;;2.90;0.82;;;40.10;42.30;;;;;;4995285;28;20038;-71
2022/04/26 13:54:36;;;;;;;2.20;0.80;;;39.80;40.80;;;;;;4995483;28;20096;-70
2022/04/26 13:57:02;;;;;;;3.88;0.85;;;40.60;40.90;;;;;;4977826;28;20061;-69
2022/04/26 13:59:28;;;;;;;6.45;3.13;;;40.50;40.40;;;;;;4977809;28;20121;-71
2022/04/26 14:01:55;;;;;;;3.63;0.90;;;40.10;39.90;;;;;;4995002;28;20121;-71
2022/04/26 14:04:21;;;;;;;2.55;0.60;;;40.00;41.40;;;;;;4995074;28;20030;-70
2022/04/26 14:06:48;;;;;;;3.65;1.20;;;37.10;42.30;;;;;;4995141;28;20065;-69
2022/04/26 14:09:14;;;;;;;69.05;4.18;;;38.60;42.40;;;;;;4994688;28;20046;-69
2022/04/26 14:11:40;;;;;;;5.00;0.90;;;39.60;42.90;;;;;;4977401;28;20038;-71
2022/04/26 14:22:20;;;;;;;1.80;0.90;;;39.40;41.80;;;;;;4993122;28;20040;-70
2022/04/26 14:24:48;;;;;;;0.88;0.77;;;36.70;42.60;;;;;;4976258;28;20117;-69
2022/04/26 14:27:14;;;;;;;0.88;0.60;;;35.80;43.90;;;;;;4994510;28;20023;-69
2022/04/26 14:29:40;;;;;;;1.25;0.70;;;37.10;43.80;;;;;;4993731;28;20030;-68
2022/04/26 14:32:07;;;;;;;2.25;1.00;;;38.30;41.40;;;;;;4976380;28;20515;-69
2022/04/26 14:34:33;;;;;;;2.75;0.68;;;37.50;41.60;;;;;;4994842;28;20031;-69
2022/04/26 14:37:01;;;;;;;5.97;0.70;;;35.00;43.30;;;;;;4976615;28;20077;-68
2022/04/26 14:39:27;;;;;;;3.67;2.58;;;34.40;43.50;;;;;;4994603;28;20573;-68
2022/04/26 14:41:53;;;;;;;3.28;1.30;;;34.30;44.90;;;;;;4994288;28;20113;-69
2022/04/26 14:44:19;;;;;;;5.22;1.90;;;36.60;44.30;;;;;;4976716;28;20026;-69
2022/04/26 14:46:45;;;;;;;1.30;1.20;;;;;;;;;;4993287;28;20426;-69
2022/04/26 14:49:11;;;;;;;1.92;1.00;;;37.70;42.10;;;;;;4993830;28;20058;-69
2022/04/26 14:51:37;;;;;;;1.88;0.85;;;38.60;43.00;;;;;;4993118;28;20525;-69
2022/04/26 14:54:03;;;;;;;0.75;0.70;;;39.60;40.50;;;;;;4994116;28;20042;-68
2022/04/26 14:56:29;;;;;;;2.40;1.65;;;40.00;41.30;;;;;;4994151;28;20031;-69
2022/04/26 14:58:55;;;;;;;2.17;0.73;;;41.10;40.00;;;;;;4993979;28;20022;-69
2022/04/26 15:01:21;;;;;;;3.17;0.75;;;39.40;39.50;;;;;;4976569;28;20121;-68
2022/04/26 15:03:47;;;;;;;0.77;0.77;;;38.10;40.30;;;;;;4976642;28;20069;-68
2022/04/26 15:06:13;;;;;;;0.40;0.40;;;;;;;;;;4994154;28;20062;-68
2022/04/26 15:11:24;;;;;;;0.80;0.80;;;31.70;45.40;;;;;;4993770;28;20089;-67
2022/04/26 15:16:41;;;;;;;1.42;0.90;;;29.10;48.40;;;;;;4994282;28;20041;-67
2022/04/26 15:19:11;;;;;;;4.13;1.20;;;29.00;48.70;;;;;;4993924;28;20117;-67
2022/04/26 15:21:39;;;;;;;1.10;1.00;;;31.40;50.00;;;;;;4993854;28;20034;-67
2022/04/26 15:24:05;;;;;;;3.13;1.35;;;35.30;45.20;;;;;;4976375;28;20121;-67
2022/04/26 15:26:31;;;;;;;1.38;1.27;;;35.60;45.60;;;;;;4993851;28;20030;-68
2022/04/26 15:28:58;;;;;;;2.65;1.30;;;;;;;;;;4993802;28;20080;-67
2022/04/26 15:31:24;;;;;;;0.98;0.95;;;37.50;44.00;;;;;;4993448;28;20074;-67
2022/04/26 15:33:51;;;;;;;1.38;1.27;;;39.30;41.40;;;;;;4993714;28;20062;-67
2022/04/26 15:36:19;;;;;;;2.63;1.00;;;40.20;55.40;;;;;;4993761;28;20031;-67
2022/04/26 15:38:45;;;;;;;2.78;1.00;;;40.40;66.50;;;;;;4993660;28;20030;-67
2022/04/26 15:41:12;;;;;;;2.40;1.42;;;40.80;48.10;;;;;;4993616;28;20026;-67
2022/04/26 15:43:39;;;;;;;3.63;1.20;;;39.90;40.90;;;;;;4993575;28;20034;-67
2022/04/26 15:46:09;;;;;;;4.47;1.60;;;34.90;43.00;;;;;;4993609;28;20029;-67
2022/04/26 15:48:42;;;;;;;1.40;0.73;;;34.60;44.50;;;;;;4975166;28;20030;-66
2022/04/26 15:51:09;;;;;;;4.22;0.80;;;31.50;46.30;;;;;;4993228;28;20467;-66
2022/04/26 15:53:34;;;;;;;0.55;0.55;;;31.30;47.30;;;;;;4993523;28;20513;-66
2022/04/26 15:56:01;;;;;;;1.80;0.68;;;;;;;;;;4993506;28;20022;-66
2022/04/26 15:58:27;;;;;;;6.38;0.80;;;28.50;49.00;;;;;;4993191;28;20426;-66
2022/04/26 16:00:55;;;;;;;1.50;0.80;;;28.20;50.60;;;;;;4993392;28;20030;-67
2022/04/26 16:03:21;;;;;;;2.92;1.45;;;27.80;51.50;;;;;;4993484;28;20018;-66
2022/04/26 16:05:47;;;;;;;1.25;0.98;;;27.20;51.30;;;;;;4993238;28;20486;-66
2022/04/26 16:08:13;;;;;;;1.30;1.20;;;27.40;51.40;;;;;;4993707;28;20038;-66
2022/04/26 16:21:37;;;;;;;1.98;0.90;;;28.80;50.20;;;;;;4993375;28;20103;-65
2022/04/26 16:24:04;;;;;;;2.70;0.82;;;30.70;49.40;;;;;;4993287;28;20030;-67
2022/04/26 16:26:34;;;;;;;9.27;1.42;;;29.50;48.90;;;;;;4993314;28;20109;-66
2022/04/26 16:29:00;;;;;;;10.88;1.65;;;;;;;;;;4993274;28;20068;-67
2022/04/26 16:31:29;;;;;;;5.47;1.80;;;29.00;50.00;;;;;;4975191;28;20053;-66
2022/04/26 16:34:00;;;;;;;8.43;2.45;;;28.20;52.60;;;;;;4993229;28;20026;-66
2022/04/26 16:36:27;;;;;;;3.33;1.55;;;;;;;;;;4993163;28;20038;-66
2022/04/26 16:38:54;;;;;;;5.28;1.63;;;27.10;53.20;;;;;;4993160;28;20538;-66
2022/04/26 16:41:19;;;;;;;3.60;1.40;;;26.80;53.70;;;;;;4993168;28;20495;-66
2022/04/26 16:43:46;;;;;;;2.47;1.35;;;;;;;;;;4993045;28;20037;-66
2022/04/26 16:46:17;;;;;;;5.30;1.77;;;;;;;;;;4975781;28;20070;-66
2022/04/26 16:48:43;;;;;;;3.03;2.20;;;25.80;56.30;;;;;;4993176;28;20018;-66
2022/04/26 16:51:10;;;;;;;2.08;1.70;;;25.70;56.40;;;;;;4993058;28;20390;-66
2022/04/26 16:53:36;;;;;;;1.23;1.13;;;25.40;56.50;;;;;;4975428;28;20383;-66
2022/04/26 16:56:05;;;;;;;1.58;1.33;;;25.10;56.50;;;;;;4975667;28;20506;-66
2022/04/26 16:58:31;;;;;;;2.05;1.17;;;25.00;57.10;;;;;;4992631;28;20442;-66
2022/04/26 17:00:57;;;;;;;2.78;1.50;;;24.80;56.80;;;;;;4977641;28;20040;-66
2022/04/26 17:03:24;;;;;;;2.85;1.98;;;;;;;;;;4996364;28;20471;-66
2022/04/26 17:05:50;;;;;;;3.50;2.15;;;;;;;;;;4978879;28;20022;-66
2022/04/26 17:08:17;;;;;;;7.25;1.90;;;;;;;;;;4978804;28;20069;-66
2022/04/26 17:10:44;;;;;;;2.92;1.70;;;;;;;;;;4996170;28;20030;-66
2022/04/26 17:13:11;;;;;;;3.33;1.30;;;;;;;;;;4978692;28;20061;-65
2022/04/26 17:15:37;;;;;;;4.03;1.85;;;;;;;;;;4978533;28;20046;-66
2022/04/26 17:18:04;;;;;;;1.77;1.40;;;;;;;;;;4996441;28;20053;-65
2022/04/26 17:20:33;;;;;;;4.78;1.40;;;;;;;;;;4996098;28;20026;-66